Time;durP1;ratioP1;P1;durP2;ratioP2;P2;SDS_P1;SDS_P2;PMS_P1;PMS_P2;Temp;Humidity;BMP_temperature;BMP_pressure;BME280_temperature;BME280_humidity;BME280_pressure;Samples;Min_cycle;Max_cycle;Signal;HPM_P1;HPM_P2
2022/01/06 00:01:49;;;;;;;5.15;1.65;;;;;;;-145.06;0.00;60892.56;4883244;28;20763;-84
2022/01/06 00:04:28;;;;;;;2.90;1.40;;;;;;;-145.06;0.00;60892.56;4865885;28;20036;-85
2022/01/06 00:07:06;;;;;;;3.50;1.35;;;;;;;-145.06;0.00;60892.56;4875184;28;20056;-85
2022/01/06 00:09:48;;;;;;;1.97;1.20;;;;;;;-145.06;0.00;60892.56;4879985;28;20032;-85
2022/01/06 00:12:37;;;;;;;4.72;1.50;;;;;;;5.49;0.00;60892.56;4878570;28;20271;-85
2022/01/06 00:15:33;;;;;;;4.47;1.50;;;;;;;-145.06;0.00;60892.56;4867859;28;20619;-85
2022/01/06 00:18:20;;;;;;;4.35;1.85;;;;;;;-145.06;0.00;60892.56;4877810;28;20036;-86
2022/01/06 00:23:57;;;;;;;4.43;1.30;;;;;;;-145.06;0.00;60892.56;4882734;28;20508;-85
2022/01/06 00:26:36;;;;;;;3.43;1.20;;;;;;;-145.06;0.00;60892.56;4883410;28;20060;-85
2022/01/06 00:29:15;;;;;;;1.95;1.15;;;;;;;-145.06;0.00;60892.56;4871600;28;20060;-85
2022/01/06 00:31:54;;;;;;;3.67;1.45;;;;;;;-145.06;0.00;60892.56;4876049;28;20443;-85
2022/01/06 00:34:33;;;;;;;4.60;1.80;;;;;;;-145.06;0.00;60892.56;4866247;28;20041;-84
2022/01/06 00:37:13;;;;;;;2.70;1.40;;;;;;;-145.06;0.00;60892.56;4874244;28;20040;-85
2022/01/06 00:39:51;;;;;;;4.18;1.55;;;;;;;-145.06;0.00;60892.56;4867995;28;20610;-86
2022/01/06 00:42:30;;;;;;;4.17;1.97;;;;;;;5.26;0.00;60892.56;4873753;28;20028;-86
2022/01/06 00:45:09;;;;;;;3.47;1.42;;;;;;;-145.06;0.00;60892.56;4871264;28;20478;-85
2022/01/06 00:47:48;;;;;;;5.20;1.60;;;;;;;-145.06;0.00;60892.56;4871443;28;20760;-86
2022/01/06 00:50:27;;;;;;;4.13;1.40;;;;;;;-145.06;0.00;60892.56;4858670;28;20264;-85
2022/01/06 00:53:07;;;;;;;2.70;1.50;;;;;;;-145.06;0.00;60892.56;4888035;28;20756;-86
2022/01/06 00:55:46;;;;;;;5.32;1.77;;;;;;;-145.06;0.00;60892.56;4873118;28;20033;-85
2022/01/06 00:58:25;;;;;;;4.32;1.58;;;;;;;-145.06;0.00;60892.56;4874243;28;20028;-85
2022/01/06 01:01:04;;;;;;;4.73;1.63;;;;;;;5.32;0.00;60892.56;4882583;28;20032;-85
2022/01/06 01:03:43;;;;;;;6.78;1.80;;;;;;;-145.06;0.00;60892.56;4868909;28;20116;-86
2022/01/06 01:06:22;;;;;;;3.55;1.65;;;;;;;-145.06;0.00;60892.56;4875170;28;20045;-85
2022/01/06 01:09:01;;;;;;;2.20;1.48;;;;;;;-145.06;0.00;60892.56;4873875;28;20044;-86
2022/01/06 01:11:40;;;;;;;2.50;1.30;;;;;;;-145.06;0.00;60892.56;4873587;28;20040;-85
2022/01/06 01:14:31;;;;;;;2.63;1.30;;;;;;;-145.06;0.00;60892.56;4871206;28;20056;-85
2022/01/06 01:17:14;;;;;;;2.67;1.08;;;;;;;5.49;0.00;60892.56;4880446;28;20036;-84
2022/01/06 01:19:54;;;;;;;3.17;1.40;;;;;;;-145.06;0.00;60892.56;4862402;28;20041;-85
2022/01/06 01:22:33;;;;;;;1.95;1.10;;;;;;;-145.06;0.00;60892.56;4876039;28;20045;-86
2022/01/06 01:25:12;;;;;;;3.33;1.40;;;;;;;-145.06;0.00;60892.56;4873186;28;20037;-86
2022/01/06 01:27:55;;;;;;;3.60;1.33;;;;;;;-145.06;0.00;60892.56;4882269;28;20758;-86
2022/01/06 01:30:42;;;;;;;2.83;1.00;;;;;;;-145.06;0.00;60892.56;4874491;28;20037;-84
2022/01/06 01:33:21;;;;;;;1.88;1.08;;;;;;;10.68;0.00;60892.56;4877134;28;20028;-85
2022/01/06 01:36:00;;;;;;;2.58;0.90;;;;;;;5.23;0.00;60892.56;4873764;28;20037;-85
2022/01/06 01:38:40;;;;;;;1.63;0.90;;;;;;;10.68;0.00;60892.56;4873597;28;20072;-84
2022/01/06 01:41:19;;;;;;;2.50;0.93;;;;;;;5.20;0.00;60892.56;4872203;28;20045;-85
2022/01/06 01:43:58;;;;;;;2.07;0.80;;;;;;;5.16;0.00;60892.56;4874553;28;20037;-85
2022/01/06 01:46:43;;;;;;;1.85;1.00;;;;;;;-145.06;0.00;60892.56;4873151;28;20792;-85
2022/01/06 01:52:01;;;;;;;1.97;0.90;;;;;;;5.08;0.00;60892.56;4877397;28;20025;-86
2022/01/06 01:54:40;;;;;;;1.33;1.00;;;;;;;5.08;0.00;60892.56;4861792;28;20275;-86
2022/01/06 01:57:19;;;;;;;3.72;0.93;;;;;;;-145.06;0.00;60892.56;4874812;28;20036;-85
2022/01/06 01:59:58;;;;;;;3.13;0.95;;;;;;;5.08;0.00;60892.56;4874392;28;20064;-85
2022/01/06 02:02:37;;;;;;;2.23;1.00;;;;;;;5.49;0.00;60892.56;4871476;28;20474;-86
2022/01/06 02:05:24;;;;;;;0.97;0.73;;;;;;;-145.06;0.00;60892.56;4879669;28;20029;-85
2022/01/06 02:08:05;;;;;;;4.82;1.48;;;;;;;-145.06;0.00;60892.56;4872294;28;20041;-85
2022/01/06 02:10:44;;;;;;;2.25;1.08;;;;;;;-145.06;0.00;60892.56;4878586;28;20037;-85
2022/01/06 02:13:28;;;;;;;2.37;1.10;;;;;;;-145.06;0.00;60892.56;4865578;28;20774;-84
2022/01/06 02:16:07;;;;;;;2.00;0.90;;;;;;;-145.06;0.00;60892.56;4872911;28;20124;-86
2022/01/06 02:18:46;;;;;;;2.90;0.98;;;;;;;-145.06;0.00;60892.56;4872555;28;20041;-85
2022/01/06 02:21:25;;;;;;;2.42;0.90;;;;;;;-145.06;0.00;60892.56;4876513;28;20029;-85
2022/01/06 02:24:04;;;;;;;2.03;0.93;;;;;;;-145.06;0.00;60892.56;4870145;28;20037;-86
2022/01/06 02:26:42;;;;;;;3.83;1.08;;;;;;;-145.06;0.00;60892.56;4867898;28;20439;-85
2022/01/06 02:29:21;;;;;;;2.60;1.00;;;;;;;-145.06;0.00;60892.56;4865292;28;20542;-84
2022/01/06 02:32:07;;;;;;;4.47;1.45;;;;;;;-145.06;0.00;60892.56;4872031;28;20040;-85
2022/01/06 02:34:47;;;;;;;2.47;1.02;;;;;;;-145.06;0.00;60892.56;4874770;28;20041;-86
2022/01/06 02:37:26;;;;;;;5.10;1.52;;;;;;;-145.06;0.00;60892.56;4884586;28;20036;-86
2022/01/06 02:40:12;;;;;;;5.65;1.65;;;;;;;-145.06;0.00;60892.56;4870821;28;20040;-86
2022/01/06 02:42:55;;;;;;;4.25;1.40;;;;;;;-145.06;0.00;60892.56;4876278;28;20037;-85
2022/01/06 02:45:36;;;;;;;3.70;1.30;;;;;;;-145.06;0.00;60892.56;4871362;28;20060;-86
2022/01/06 02:48:16;;;;;;;6.05;1.50;;;;;;;-145.06;0.00;60892.56;4871318;28;20056;-85
2022/01/06 02:50:54;;;;;;;2.70;1.30;;;;;;;-145.06;0.00;60892.56;4878236;28;20067;-84
2022/01/06 02:53:33;;;;;;;5.93;1.20;;;;;;;-145.06;0.00;60892.56;4867551;28;20041;-85
2022/01/06 02:56:12;;;;;;;2.73;1.03;;;;;;;-145.06;0.00;60892.56;4872731;28;20037;-85
2022/01/06 02:58:51;;;;;;;2.97;1.50;;;;;;;-145.06;0.00;60892.56;4875992;28;20311;-85
2022/01/06 03:01:30;;;;;;;4.33;1.30;;;;;;;-145.06;0.00;60892.56;4880557;28;20275;-85
2022/01/06 03:04:11;;;;;;;2.05;0.82;;;;;;;-145.06;0.00;60892.56;4877367;28;20060;-85
2022/01/06 03:06:51;;;;;;;3.80;1.13;;;;;;;-145.06;0.00;60892.56;4887395;28;20028;-85
2022/01/06 03:09:38;;;;;;;2.35;1.00;;;;;;;-145.06;0.00;60892.56;4875340;28;20025;-84
2022/01/06 03:12:29;;;;;;;3.00;0.85;;;;;;;-145.06;0.00;60892.56;4874024;28;20057;-85
2022/01/06 03:15:20;;;;;;;1.13;0.80;;;;;;;-145.06;0.00;60892.56;4882662;28;20119;-86
2022/01/06 03:17:59;;;;;;;1.60;0.85;;;;;;;-145.06;0.00;60892.56;4877845;28;20359;-84
2022/01/06 03:20:38;;;;;;;2.10;0.77;;;;;;;-145.06;0.00;60892.56;4875575;28;20025;-86
2022/01/06 03:23:17;;;;;;;2.00;0.82;;;;;;;-145.06;0.00;60892.56;4872389;28;20375;-86
2022/01/06 03:25:56;;;;;;;1.80;1.00;;;;;;;-145.06;0.00;60892.56;4878655;28;20112;-85
2022/01/06 03:28:35;;;;;;;1.47;0.80;;;;;;;-145.06;0.00;60892.56;4866291;28;20033;-86
2022/01/06 03:31:14;;;;;;;2.03;0.80;;;;;;;-145.06;0.00;60892.56;4874739;28;20753;-85
2022/01/06 03:33:53;;;;;;;4.18;1.08;;;;;;;187.52;0.00;60892.56;4876140;28;20033;-85
2022/01/06 03:36:32;;;;;;;1.17;0.67;;;;;;;-145.06;0.00;60892.56;4877631;28;20033;-84
2022/01/06 03:39:11;;;;;;;1.87;0.90;;;;;;;-145.06;0.00;60892.56;4864254;28;20037;-86
2022/01/06 03:41:50;;;;;;;2.58;0.90;;;;;;;-145.06;0.00;60892.56;4878158;28;20028;-84
2022/01/06 03:44:29;;;;;;;3.90;1.10;;;;;;;-145.06;0.00;60892.56;4869351;28;20028;-84
2022/01/06 03:47:08;;;;;;;3.03;0.87;;;;;;;-145.06;0.00;60892.56;4916897;28;20032;-85
2022/01/06 03:49:47;;;;;;;2.40;0.85;;;;;;;-145.06;0.00;60892.56;4882318;28;20288;-86
2022/01/06 03:52:26;;;;;;;4.50;1.40;;;;;;;-145.06;0.00;60892.56;4868043;28;20029;-85
2022/01/06 03:55:09;;;;;;;5.18;1.00;;;;;;;-145.06;0.00;60892.56;4871978;28;20280;-86
2022/01/06 03:57:48;;;;;;;2.85;1.30;;;;;;;-145.06;0.00;60892.56;4871391;28;20041;-86
2022/01/06 04:00:26;;;;;;;3.27;1.23;;;;;;;-145.06;0.00;60892.56;4878437;28;20029;-85
2022/01/06 04:03:06;;;;;;;3.55;1.45;;;;;;;-145.06;0.00;60892.56;4883194;28;20263;-85
2022/01/06 04:05:44;;;;;;;3.80;1.03;;;;;;;-145.06;0.00;60892.56;4883299;28;20036;-84
2022/01/06 04:08:24;;;;;;;3.53;1.30;;;;;;;-145.06;0.00;60892.56;4880287;28;20097;-84
2022/01/06 04:11:03;;;;;;;3.10;1.20;;;;;;;-145.06;0.00;60892.56;4875812;28;20037;-84
2022/01/06 04:13:42;;;;;;;3.45;1.05;;;;;;;-145.06;0.00;60892.56;4874100;28;20025;-85
2022/01/06 04:16:21;;;;;;;1.90;1.05;;;;;;;-145.06;0.00;60892.56;4873372;28;20040;-85
2022/01/06 04:19:00;;;;;;;2.30;0.93;;;;;;;-145.06;0.00;60892.56;4873596;28;20033;-84
2022/01/06 04:21:42;;;;;;;3.80;1.20;;;;;;;4.19;0.00;60892.56;4877382;28;20036;-86
2022/01/06 04:24:21;;;;;;;4.10;1.00;;;;;;;3.87;0.00;60892.56;4872168;28;20032;-85
2022/01/06 04:27:01;;;;;;;3.55;1.23;;;;;;;3.84;0.00;60892.56;4874213;28;20032;-85
2022/01/06 04:29:40;;;;;;;3.67;1.10;;;;;;;4.19;0.00;60892.56;4870625;28;20033;-86
2022/01/06 04:32:19;;;;;;;1.48;0.80;;;;;;;4.19;0.00;60892.56;4872470;28;20112;-85
2022/01/06 04:34:59;;;;;;;4.77;1.00;;;;;;;-145.06;0.00;60892.56;4880867;28;20056;-86
2022/01/06 04:37:38;;;;;;;2.80;1.20;;;;;;;-145.06;0.00;60892.56;4874614;28;20029;-86
2022/01/06 04:40:17;;;;;;;4.60;1.20;;;;;;;10.68;0.00;60892.56;4873331;28;20033;-85
2022/01/06 04:42:56;;;;;;;2.70;1.07;;;;;;;10.68;0.00;60892.56;4875440;28;20037;-86
2022/01/06 04:45:35;;;;;;;4.10;0.93;;;;;;;5.49;0.00;60892.56;4873159;28;20036;-86
2022/01/06 04:48:14;;;;;;;1.05;0.82;;;;;;;4.19;0.00;60892.56;4863654;28;20275;-84
2022/01/06 04:50:53;;;;;;;4.60;1.27;;;;;;;21.08;0.00;60892.56;4907895;28;20028;-86
2022/01/06 04:53:32;;;;;;;2.33;1.08;;;;;;;5.49;0.00;60892.56;4871776;28;20279;-85
2022/01/06 04:56:10;;;;;;;3.55;1.40;;;;;;;5.49;0.00;60892.56;4874154;28;20033;-86
2022/01/06 04:58:49;;;;;;;2.93;1.17;;;;;;;5.49;0.00;60892.56;4872825;28;20028;-85
2022/01/06 05:01:29;;;;;;;2.85;1.08;;;;;;;3.86;0.00;60892.56;4875862;28;20033;-86
2022/01/06 05:04:08;;;;;;;1.57;1.00;;;;;;;-145.06;0.00;60892.56;4878069;28;20367;-85
2022/01/06 05:06:47;;;;;;;2.40;1.20;;;;;;;10.68;0.00;60892.56;4870973;28;20259;-86
2022/01/06 05:09:26;;;;;;;1.75;0.90;;;;;;;-145.06;0.00;60892.56;4873730;28;20271;-85
2022/01/06 05:12:05;;;;;;;3.03;1.00;;;;;;;-145.06;0.00;60892.56;4872790;28;20541;-85
2022/01/06 05:14:44;;;;;;;3.85;1.08;;;;;;;-145.06;0.00;60892.56;4881873;28;20040;-85
2022/01/06 05:17:23;;;;;;;1.30;1.05;;;;;;;-145.06;0.00;60892.56;4871378;28;20037;-85
2022/01/06 05:20:06;;;;;;;2.28;0.80;;;;;;;177.11;0.00;60892.56;4869817;28;20037;-85
2022/01/06 05:22:46;;;;;;;1.42;0.80;;;;;;;187.52;0.00;60892.56;4872027;28;20033;-85
2022/01/06 05:25:27;;;;;;;2.03;0.80;;;;;;;-145.06;0.00;60892.56;4878861;28;20375;-85
2022/01/06 05:28:06;;;;;;;1.10;0.80;;;;;;;-145.06;0.00;60892.56;4873456;28;20490;-85
2022/01/06 05:30:46;;;;;;;3.13;1.10;;;;;;;-145.06;0.00;60892.56;4873761;28;20025;-85
2022/01/06 05:33:26;;;;;;;2.30;0.88;;;;;;;-145.06;0.00;60892.56;4874580;28;20108;-86
2022/01/06 05:36:05;;;;;;;;;;;;;;;-145.06;0.00;60892.56;4865445;28;20033;-86
2022/01/06 05:38:44;;;;;;;3.95;1.40;;;;;;;-145.06;0.00;60892.56;4880285;28;20282;-85
2022/01/06 05:41:23;;;;;;;3.10;1.20;;;;;;;-145.06;0.00;60892.56;4872848;28;20044;-85
2022/01/06 05:44:02;;;;;;;1.65;1.35;;;;;;;-145.06;0.00;60892.56;4880249;28;20375;-85
2022/01/06 05:46:42;;;;;;;2.15;1.67;;;;;;;-145.06;0.00;60892.56;4878865;28;20426;-86
2022/01/06 05:49:20;;;;;;;3.53;1.60;;;;;;;-145.06;0.00;60892.56;4863956;28;20041;-85
2022/01/06 05:52:00;;;;;;;3.63;1.70;;;;;;;-145.06;0.00;60892.56;4880621;28;20346;-86
2022/01/06 05:54:40;;;;;;;2.63;1.48;;;;;;;-145.06;0.00;60892.56;4877668;28;20279;-86
2022/01/06 05:57:19;;;;;;;6.13;1.95;;;;;;;-145.06;0.00;60892.56;4876019;28;20041;-86
2022/01/06 05:59:58;;;;;;;;;;;;;;;-145.06;0.00;60892.56;4873984;28;20064;-85
2022/01/06 06:02:37;;;;;;;2.20;1.42;;;;;;;-145.06;0.00;60892.56;4877889;28;19917;-86
2022/01/06 06:05:16;;;;;;;3.28;1.92;;;;;;;-145.06;0.00;60892.56;4874697;28;20466;-84
2022/01/06 06:07:55;;;;;;;6.45;2.13;;;;;;;-145.06;0.00;60892.56;4878865;28;20068;-86
2022/01/06 06:10:34;;;;;;;4.75;2.28;;;;;;;-145.06;0.00;60892.56;4869231;28;20072;-85
2022/01/06 06:13:14;;;;;;;4.77;2.40;;;;;;;-145.06;0.00;60892.56;4871990;28;20108;-85
2022/01/06 06:15:52;;;;;;;3.55;1.75;;;;;;;-145.06;0.00;60892.56;4869254;28;20120;-86
2022/01/06 06:18:31;;;;;;;4.30;2.20;;;;;;;-145.06;0.00;60892.56;4886382;28;20379;-86
2022/01/06 06:21:10;;;;;;;3.78;1.65;;;;;;;-145.06;0.00;60892.56;4866000;28;20272;-86
2022/01/06 06:23:50;;;;;;;5.63;2.50;;;;;;;-145.06;0.00;60892.56;4890869;28;20032;-85
2022/01/06 06:26:29;;;;;;;4.85;2.10;;;;;;;-145.06;0.00;60892.56;4886961;28;20040;-86
2022/01/06 06:29:08;;;;;;;5.82;2.03;;;;;;;-145.06;0.00;60892.56;4871658;28;20033;-85
2022/01/06 06:31:47;;;;;;;6.93;2.10;;;;;;;-145.06;0.00;60892.56;4861457;28;20029;-85
2022/01/06 06:34:26;;;;;;;5.68;2.15;;;;;;;-145.06;0.00;60892.56;4880785;28;20478;-86
2022/01/06 06:37:05;;;;;;;2.85;2.03;;;;;;;-145.06;0.00;60892.56;4864481;28;20458;-85
2022/01/06 06:39:44;;;;;;;3.83;1.93;;;;;;;-145.06;0.00;60892.56;4871880;28;20033;-85
2022/01/06 06:42:24;;;;;;;4.45;1.95;;;;;;;-145.06;0.00;60892.56;4872313;28;20665;-86
2022/01/06 06:45:04;;;;;;;4.38;1.90;;;;;;;-145.06;0.00;60892.56;4860755;28;20041;-86
2022/01/06 06:47:42;;;;;;;2.95;1.75;;;;;;;-145.06;0.00;60892.56;4868505;28;20029;-87
2022/01/06 06:50:21;;;;;;;5.97;1.60;;;;;;;-145.06;0.00;60892.56;4871193;28;20036;-86
2022/01/06 06:53:02;;;;;;;5.97;1.80;;;;;;;-145.06;0.00;60892.56;4877950;28;20466;-85
2022/01/06 06:55:41;;;;;;;2.17;1.27;;;;;;;-145.06;0.00;60892.56;4871347;28;20041;-85
2022/01/06 06:58:20;;;;;;;3.00;1.60;;;;;;;-145.06;0.00;60892.56;4873062;28;20029;-85
2022/01/06 07:00:59;;;;;;;4.00;1.63;;;;;;;-145.06;0.00;60892.56;4877842;28;20383;-86
2022/01/06 07:03:38;;;;;;;2.05;1.40;;;;;;;-145.06;0.00;60892.56;4870475;28;20025;-85
2022/01/06 07:06:17;;;;;;;4.70;2.00;;;;;;;-145.06;0.00;60892.56;4874222;28;20029;-85
2022/01/06 07:08:56;;;;;;;3.87;1.60;;;;;;;-145.06;0.00;60892.56;4880443;28;20354;-86
2022/01/06 07:11:35;;;;;;;4.83;1.60;;;;;;;-145.06;0.00;60892.56;4871428;28;20135;-86
2022/01/06 07:14:14;;;;;;;5.10;1.65;;;;;;;-145.06;0.00;60892.56;4868873;28;20506;-85
2022/01/06 07:16:53;;;;;;;2.20;1.50;;;;;;;-145.06;0.00;60892.56;4864112;28;20520;-86
2022/01/06 07:19:32;;;;;;;3.07;1.50;;;;;;;-145.06;0.00;60892.56;4876886;28;20061;-85
2022/01/06 07:22:11;;;;;;;4.00;2.00;;;;;;;-145.06;0.00;60892.56;4873285;28;20054;-85
2022/01/06 07:24:50;;;;;;;2.27;1.53;;;;;;;-145.06;0.00;60892.56;4855510;28;20272;-84
2022/01/06 07:27:29;;;;;;;1.63;1.33;;;;;;;-145.06;0.00;60892.56;4836892;28;20029;-86
2022/01/06 07:30:09;;;;;;;2.35;1.20;;;;;;;-145.06;0.00;60892.56;4834702;28;20034;-85
2022/01/06 07:32:49;;;;;;;2.58;1.50;;;;;;;-145.06;0.00;60892.56;4839255;28;20046;-86
2022/01/06 07:35:28;;;;;;;1.85;1.33;;;;;;;-145.06;0.00;60892.56;4860495;28;20056;-85
2022/01/06 07:38:07;;;;;;;2.85;1.70;;;;;;;-145.06;0.00;60892.56;4835772;28;20539;-85
2022/01/06 07:40:46;;;;;;;1.25;1.13;;;;;;;-145.06;0.00;60892.56;4837559;28;20049;-86
2022/01/06 07:43:25;;;;;;;3.93;1.57;;;;;;;-145.06;0.00;60892.56;4866626;28;20037;-87
2022/01/06 07:46:04;;;;;;;3.37;1.47;;;;;;;-145.06;0.00;60892.56;4837593;28;20281;-85
2022/01/06 07:48:56;;;;;;;3.78;1.55;;;;;;;-145.06;0.00;60892.56;4836770;28;20272;-85
2022/01/06 07:51:35;;;;;;;4.82;1.80;;;;;;;-145.06;0.00;60892.56;4857214;28;20061;-85
2022/01/06 07:54:14;;;;;;;3.63;2.00;;;;;;;10.68;0.00;60892.56;4845045;28;20033;-86
2022/01/06 07:56:53;;;;;;;4.22;2.00;;;;;;;-145.06;0.00;60892.56;4837370;28;20280;-85
2022/01/06 07:59:32;;;;;;;3.72;1.65;;;;;;;-145.06;0.00;60892.56;4844062;28;20029;-86
2022/01/06 08:02:11;;;;;;;4.53;2.20;;;;;;;10.68;0.00;60892.56;4836904;28;20041;-86
2022/01/06 08:04:52;;;;;;;2.80;1.70;;;;;;;-145.06;0.00;60892.56;4835215;28;20281;-85
2022/01/06 08:07:33;;;;;;;2.90;1.90;;;;;;;-145.06;0.00;60892.56;4834814;28;20373;-85
2022/01/06 08:10:13;;;;;;;4.68;2.33;;;;;;;4.19;0.00;60892.56;4834594;28;20025;-86
2022/01/06 08:12:52;;;;;;;4.28;2.42;;;;;;;-145.06;0.00;60892.56;4838272;28;20026;-86
2022/01/06 08:15:31;;;;;;;4.60;2.75;;;;;;;4.19;0.00;60892.56;4834122;28;20125;-85
2022/01/06 08:18:10;;;;;;;5.23;3.13;;;;;;;-145.06;0.00;60892.56;4842599;28;20030;-86
2022/01/06 08:20:49;;;;;;;5.45;2.85;;;;;;;3.89;0.00;60892.56;4845955;28;20288;-85
2022/01/06 08:23:28;;;;;;;4.60;2.90;;;;;;;-145.06;0.00;60892.56;4859690;28;20026;-85
2022/01/06 08:26:07;;;;;;;4.43;2.67;;;;;;;4.19;0.00;60892.56;4836558;28;20416;-85
2022/01/06 08:28:47;;;;;;;4.18;2.90;;;;;;;-145.06;0.00;60892.56;4832276;28;20038;-86
2022/01/06 08:31:26;;;;;;;4.43;2.40;;;;;;;-145.06;0.00;60892.56;4861398;28;20609;-86
2022/01/06 08:34:05;;;;;;;5.47;2.70;;;;;;;-145.06;0.00;60892.56;4834631;28;20038;-86
2022/01/06 08:36:44;;;;;;;5.85;2.75;;;;;;;4.19;0.00;60892.56;4836403;28;20038;-86
2022/01/06 08:39:23;;;;;;;5.88;3.10;;;;;;;-145.06;0.00;60892.56;4834620;28;20164;-85
2022/01/06 08:42:02;;;;;;;4.43;2.90;;;;;;;10.68;0.00;60892.56;4859637;28;20663;-86
2022/01/06 08:44:41;;;;;;;5.25;2.80;;;;;;;-145.06;0.00;60892.56;4835479;28;20472;-86
2022/01/06 08:47:22;;;;;;;3.72;2.88;;;;;;;-145.06;0.00;60892.56;4831992;28;20025;-85
2022/01/06 08:50:01;;;;;;;5.20;2.40;;;;;;;-145.06;0.00;60892.56;4833423;28;20082;-87
2022/01/06 08:52:40;;;;;;;5.60;3.30;;;;;;;-145.06;0.00;60892.56;4833387;28;20038;-87
2022/01/06 08:55:19;;;;;;;3.42;2.58;;;;;;;-145.06;0.00;60892.56;4836851;28;20045;-86
2022/01/06 08:57:58;;;;;;;6.00;2.92;;;;;;;-145.06;0.00;60892.56;4838116;28;20276;-86
2022/01/06 09:00:39;;;;;;;4.83;2.97;;;;;;;-145.06;0.00;60892.56;4826376;28;20034;-86
2022/01/06 09:03:18;;;;;;;5.22;3.08;;;;;;;-145.06;0.00;60892.56;4833639;28;20785;-86
2022/01/06 09:05:57;;;;;;;4.75;3.45;;;;;;;-145.06;0.00;60892.56;4834462;28;20773;-87
2022/01/06 09:08:36;;;;;;;7.17;3.33;;;;;;;-145.06;0.00;60892.56;4836467;28;20064;-86
2022/01/06 09:11:16;;;;;;;8.43;3.70;;;;;;;-145.06;0.00;60892.56;4833578;28;20037;-86
2022/01/06 09:13:54;;;;;;;4.90;3.17;;;;;;;-145.06;0.00;60892.56;4836164;28;20503;-86
2022/01/06 09:16:33;;;;;;;4.22;2.95;;;;;;;-145.06;0.00;60892.56;4836352;28;20038;-84
2022/01/06 09:19:13;;;;;;;6.97;3.77;;;;;;;-145.06;0.00;60892.56;4834580;28;20025;-86
2022/01/06 09:21:52;;;;;;;6.00;3.83;;;;;;;-145.06;0.00;60892.56;4865298;28;20057;-86
2022/01/06 09:24:31;;;;;;;5.73;3.30;;;;;;;-145.06;0.00;60892.56;4832364;28;20092;-85
2022/01/06 09:27:10;;;;;;;5.35;3.03;;;;;;;-145.06;0.00;60892.56;4836063;28;20896;-86
2022/01/06 09:29:52;;;;;;;5.60;3.23;;;;;;;-145.06;0.00;60892.56;4836073;28;20033;-87
2022/01/06 09:32:31;;;;;;;6.35;3.78;;;;;;;-145.06;0.00;60892.56;4835698;28;20499;-86
2022/01/06 09:35:10;;;;;;;7.05;3.80;;;;;;;-145.06;0.00;60892.56;4833354;28;20046;-85
2022/01/06 09:37:49;;;;;;;6.00;3.83;;;;;;;-145.06;0.00;60892.56;4835050;28;20038;-85
2022/01/06 09:40:28;;;;;;;7.47;3.50;;;;;;;-145.06;0.00;60892.56;4829787;28;20543;-85
2022/01/06 09:43:08;;;;;;;4.70;3.03;;;;;;;-145.06;0.00;60892.56;4833943;28;20277;-86
2022/01/06 09:45:47;;;;;;;4.97;2.80;;;;;;;-145.06;0.00;60892.56;4861611;28;20025;-85
2022/01/06 09:48:26;;;;;;;3.92;2.58;;;;;;;-145.06;0.00;60892.56;4833548;28;20057;-85
2022/01/06 09:51:06;;;;;;;3.72;2.70;;;;;;;-145.06;0.00;60892.56;4862139;28;20420;-85
2022/01/06 09:53:48;;;;;;;3.75;2.58;;;;;;;-145.06;0.00;60892.56;4862026;28;20617;-86
2022/01/06 09:56:29;;;;;;;5.60;2.85;;;;;;;-145.06;0.00;60892.56;4834353;28;20029;-86
2022/01/06 09:59:08;;;;;;;6.20;2.90;;;;;;;-145.06;0.00;60892.56;4829408;28;20034;-85
2022/01/06 10:01:47;;;;;;;4.78;2.95;;;;;;;-145.06;0.00;60892.56;4830931;28;20033;-86
2022/01/06 10:04:28;;;;;;;6.13;2.92;;;;;;;-145.06;0.00;60892.56;4834689;28;20030;-85
2022/01/06 10:07:09;;;;;;;7.03;3.55;;;;;;;-145.06;0.00;60892.56;4835610;28;20037;-86
2022/01/06 10:09:50;;;;;;;6.32;3.50;;;;;;;-145.06;0.00;60892.56;4834386;28;20444;-86
2022/01/06 10:12:29;;;;;;;6.80;3.38;;;;;;;-145.06;0.00;60892.56;4857595;28;20030;-86
2022/01/06 10:15:17;;;;;;;6.80;3.53;;;;;;;-145.06;0.00;60892.56;4863642;28;20364;-86
2022/01/06 10:17:56;;;;;;;8.02;3.78;;;;;;;-145.06;0.00;60892.56;4849661;28;20033;-85
2022/01/06 10:20:35;;;;;;;5.13;3.27;;;;;;;-145.06;0.00;60892.56;4841965;28;20034;-85
2022/01/06 10:23:16;;;;;;;7.32;3.25;;;;;;;-145.06;0.00;60892.56;4844079;28;20022;-86
2022/01/06 10:25:55;;;;;;;6.10;3.75;;;;;;;-145.06;0.00;60892.56;4835740;28;20037;-85
2022/01/06 10:28:35;;;;;;;5.07;3.67;;;;;;;-145.06;0.00;60892.56;4830053;28;20025;-86
2022/01/06 10:31:18;;;;;;;5.38;3.40;;;;;;;-145.06;0.00;60892.56;4832746;28;20069;-86
2022/01/06 10:33:57;;;;;;;8.85;4.68;;;;;;;-145.06;0.00;60892.56;4827321;28;20030;-86
2022/01/06 10:36:38;;;;;;;4.75;3.60;;;;;;;-145.06;0.00;60892.56;4833944;28;20046;-86
2022/01/06 10:39:17;;;;;;;10.95;4.78;;;;;;;-145.06;0.00;60892.56;4832946;28;20034;-85
2022/01/06 10:42:04;;;;;;;5.97;3.73;;;;;;;-145.06;0.00;60892.56;4827087;28;20046;-86
2022/01/06 10:44:54;;;;;;;7.10;3.88;;;;;;;-145.06;0.00;60892.56;4845324;28;20280;-87
2022/01/06 10:47:37;;;;;;;6.63;3.78;;;;;;;-145.06;0.00;60892.56;4832167;28;20034;-86
2022/01/06 10:50:20;;;;;;;6.40;3.65;;;;;;;-145.06;0.00;60892.56;4830526;28;20542;-86
2022/01/06 10:53:10;;;;;;;5.32;3.60;;;;;;;-145.06;0.00;60892.56;4834224;28;20468;-85
2022/01/06 10:55:49;;;;;;;4.78;3.45;;;;;;;-145.06;0.00;60892.56;4858507;28;20647;-86
2022/01/06 10:58:28;;;;;;;8.25;3.72;;;;;;;-145.06;0.00;60892.56;4831877;28;20041;-85
2022/01/06 11:01:07;;;;;;;6.00;3.17;;;;;;;-145.06;0.00;60892.56;4832933;28;20077;-86
2022/01/06 11:03:49;;;;;;;8.15;4.00;;;;;;;-145.06;0.00;60892.56;4833951;28;20257;-85
2022/01/06 11:06:29;;;;;;;8.60;3.60;;;;;;;5.43;0.00;60892.56;4841997;28;20034;-86
2022/01/06 11:09:12;;;;;;;7.30;3.47;;;;;;;-145.06;0.00;60892.56;4860656;28;20038;-86
2022/01/06 11:14:42;;;;;;;6.22;3.33;;;;;;;10.68;0.00;60892.56;4840484;28;20045;-86
2022/01/06 11:17:23;;;;;;;8.20;3.28;;;;;;;-145.06;0.00;60892.56;4855291;28;20037;-87
2022/01/06 11:20:03;;;;;;;6.55;3.17;;;;;;;-145.06;0.00;60892.56;4840567;28;20385;-86
2022/01/06 11:22:51;;;;;;;6.50;3.90;;;;;;;-145.06;0.00;60892.56;4848465;28;20037;-87
2022/01/06 11:25:35;;;;;;;6.47;3.50;;;;;;;-145.06;0.00;60892.56;4835546;28;20042;-85
2022/01/06 11:28:16;;;;;;;8.25;3.97;;;;;;;187.52;0.00;60892.56;4847960;28;20300;-85
2022/01/06 11:30:55;;;;;;;9.55;3.92;;;;;;;-145.06;0.00;60892.56;4851503;28;20025;-86
2022/01/06 11:33:40;;;;;;;4.45;3.38;;;;;;;-145.06;0.00;60892.56;4846195;28;20180;-86
2022/01/06 11:36:32;;;;;;;6.60;3.78;;;;;;;-145.06;0.00;60892.56;4860034;28;20052;-87
2022/01/06 11:39:22;;;;;;;4.65;3.15;;;;;;;-145.06;0.00;60892.56;4863185;28;20045;-86
2022/01/06 11:42:11;;;;;;;;;;;;;;;-145.06;0.00;60892.56;4834470;28;20073;-86
2022/01/06 11:44:53;;;;;;;5.80;3.00;;;;;;;-145.06;0.00;60892.56;4840321;28;19925;-87
2022/01/06 11:47:36;;;;;;;4.07;2.75;;;;;;;-145.06;0.00;60892.56;4835385;28;20038;-87
2022/01/06 11:50:25;;;;;;;5.22;2.90;;;;;;;-145.06;0.00;60892.56;4847578;28;20049;-86
2022/01/06 11:53:05;;;;;;;5.00;2.65;;;;;;;6.46;0.00;60892.56;4835030;28;20050;-87
2022/01/06 11:55:46;;;;;;;8.32;3.20;;;;;;;-145.06;0.00;60892.56;4834464;28;20633;-87
2022/01/06 11:58:25;;;;;;;7.07;3.17;;;;;;;-145.06;0.00;60892.56;4829724;28;20037;-87
2022/01/06 12:01:12;;;;;;;8.18;3.28;;;;;;;-145.06;0.00;60892.56;4834248;28;20034;-88
2022/01/06 12:03:51;;;;;;;6.13;2.90;;;;;;;187.52;0.00;60892.56;4834346;28;20042;-87
2022/01/06 12:06:33;;;;;;;5.38;2.97;;;;;;;6.60;0.00;60892.56;4832763;28;20472;-88
2022/01/06 12:09:20;;;;;;;6.00;3.17;;;;;;;10.68;0.00;60892.56;4835904;28;20038;-87
2022/01/06 12:12:10;;;;;;;7.20;3.40;;;;;;;-145.06;0.00;60892.56;4833673;28;20046;-88
2022/01/06 12:14:48;;;;;;;5.68;3.92;;;;;;;-145.06;0.00;60892.56;4847563;28;20436;-87
2022/01/06 12:17:28;;;;;;;10.15;4.10;;;;;;;-145.06;0.00;60892.56;4850417;28;20041;-87
2022/01/06 12:20:07;;;;;;;5.53;3.30;;;;;;;-145.06;0.00;60892.56;4854414;28;20029;-88
2022/01/06 12:22:46;;;;;;;6.13;3.60;;;;;;;-145.06;0.00;60892.56;4850052;28;20132;-87
2022/01/06 12:25:29;;;;;;;5.70;3.30;;;;;;;-145.06;0.00;60892.56;4853564;28;20372;-87
2022/01/06 12:28:09;;;;;;;5.50;3.00;;;;;;;187.52;0.00;60892.56;4867230;28;20112;-88
2022/01/06 12:30:48;;;;;;;4.55;2.92;;;;;;;7.54;0.00;60892.56;4856385;28;20041;-88
2022/01/06 12:33:30;;;;;;;9.53;4.33;;;;;;;7.59;0.00;60892.56;4857247;28;20025;-87
2022/01/06 12:36:09;;;;;;;7.25;3.05;;;;;;;-145.06;0.00;60892.56;4858775;28;20296;-88
2022/01/06 12:38:48;;;;;;;6.87;3.27;;;;;;;-145.06;0.00;60892.56;4854964;28;20029;-88